createdAt,value
2023-03-15T00:04:16.659Z,5.20
2023-03-15T00:14:18.814Z,5.30
2023-03-15T00:34:25.788Z,5.20
2023-03-15T00:44:28.093Z,5.20
2023-03-15T00:54:29.771Z,5.20
2023-03-15T01:04:32.078Z,5.00
2023-03-15T01:14:35.785Z,4.90
2023-03-15T01:24:37.611Z,4.80
2023-03-15T01:34:39.339Z,4.80
2023-03-15T01:45:01.588Z,4.60
2023-03-15T01:55:13.689Z,4.60
2023-03-15T02:05:20.558Z,4.50
2023-03-15T02:15:22.182Z,4.40
2023-03-15T02:25:38.353Z,4.30
2023-03-15T02:35:40.021Z,4.30
2023-03-15T02:55:44.032Z,4.10
2023-03-15T03:05:45.765Z,4.10
2023-03-15T03:15:50.223Z,3.90
2023-03-15T03:25:56.121Z,4.00
2023-03-15T03:36:02.162Z,4.00
2023-03-15T03:56:07.405Z,3.80
2023-03-15T04:26:14.694Z,3.70
2023-03-15T05:06:27.765Z,3.60
2023-03-15T05:26:31.489Z,3.60
2023-03-15T05:36:34.106Z,4.10
2023-03-15T05:46:35.757Z,3.70
2023-03-15T06:16:41.661Z,4.20
2023-03-15T06:36:45.571Z,4.40
2023-03-15T07:06:51.771Z,4.60
2023-03-15T07:36:58.345Z,5.30
2023-03-15T07:47:00.070Z,5.20
2023-03-15T08:16:02.418Z,4.80
2023-03-15T08:26:04.267Z,4.60
2023-03-15T08:36:06.666Z,4.50
2023-03-15T08:46:08.495Z,4.50
2023-03-15T08:56:10.208Z,4.90
2023-03-15T09:06:11.932Z,5.00
2023-03-15T09:18:31.710Z,5.30
2023-03-15T09:38:36.277Z,5.40
2023-03-15T09:48:52.422Z,5.80
2023-03-15T09:58:59.783Z,6.00
2023-03-15T10:09:12.538Z,5.80
2023-03-15T10:19:17.655Z,5.30
2023-03-15T10:29:23.359Z,6.20
2023-03-15T10:39:25.813Z,6.20
2023-03-15T10:49:35.859Z,6.20
2023-03-15T10:59:37.662Z,5.90
2023-03-15T11:09:41.853Z,5.80
2023-03-15T11:19:53.282Z,5.50
2023-03-15T11:29:58.284Z,6.20
2023-03-15T11:40:11.361Z,6.20
2023-03-15T11:50:16.000Z,6.40
2023-03-15T12:00:31.999Z,6.20
